createdAt,value
2019-03-30T00:02:55.946Z,18.53
2019-03-30T00:08:05.131Z,14.54
2019-03-30T00:13:14.338Z,13.86
2019-03-30T00:18:23.608Z,14.76
2019-03-30T00:23:33.528Z,15.32
2019-03-30T00:28:42.678Z,13.88
2019-03-30T00:33:51.738Z,10.49
2019-03-30T00:39:00.853Z,12.88
2019-03-30T00:44:09.952Z,11.67
2019-03-30T00:49:19.078Z,16.00
2019-03-30T00:54:28.143Z,19.71
2019-03-30T00:59:37.326Z,15.17
2019-03-30T01:04:46.392Z,10.53
2019-03-30T01:09:55.482Z,10.78
2019-03-30T01:15:04.518Z,13.76
2019-03-30T01:20:13.734Z,11.02
2019-03-30T01:25:22.826Z,9.47
2019-03-30T01:30:31.913Z,11.52
2019-03-30T01:35:40.933Z,8.87
2019-03-30T01:40:50.107Z,11.84
2019-03-30T01:45:59.133Z,10.98
2019-03-30T01:51:08.227Z,10.51
2019-03-30T01:56:17.239Z,11.00
2019-03-30T02:01:26.413Z,11.56
2019-03-30T02:06:35.501Z,8.73
2019-03-30T02:11:44.790Z,9.95
2019-03-30T02:16:53.879Z,6.89
2019-03-30T02:22:02.999Z,12.04
2019-03-30T02:27:12.052Z,9.77
2019-03-30T02:32:21.153Z,8.93
2019-03-30T02:37:30.230Z,7.21
2019-03-30T02:42:39.421Z,6.62
2019-03-30T02:47:48.526Z,9.11
2019-03-30T02:52:58.059Z,11.29
2019-03-30T02:58:07.073Z,9.67
2019-03-30T03:03:16.213Z,10.81
2019-03-30T03:08:25.298Z,8.88
2019-03-30T03:13:34.525Z,9.64
2019-03-30T03:18:43.549Z,9.83
2019-03-30T03:23:52.656Z,8.53
2019-03-30T03:29:01.737Z,7.75
2019-03-30T03:34:10.870Z,9.12
2019-03-30T03:39:19.909Z,11.32
2019-03-30T03:44:29.064Z,10.69
2019-03-30T03:49:38.102Z,6.94
2019-03-30T03:54:47.294Z,8.77
2019-03-30T03:59:56.473Z,7.46
2019-03-30T04:05:05.608Z,8.86
2019-03-30T04:10:14.599Z,12.81
2019-03-30T04:15:23.709Z,9.52
2019-03-30T04:20:32.775Z,11.44
2019-03-30T04:25:42.046Z,10.68
2019-03-30T04:30:51.109Z,8.89
2019-03-30T04:36:00.198Z,10.77
2019-03-30T04:41:09.214Z,11.35
2019-03-30T04:46:18.657Z,13.19
2019-03-30T04:51:27.858Z,10.95
2019-03-30T04:56:37.409Z,10.61
2019-03-30T05:01:46.501Z,11.11
2019-03-30T05:06:55.682Z,10.96
2019-03-30T05:12:04.732Z,9.73
2019-03-30T05:17:14.254Z,10.63
2019-03-30T05:22:35.077Z,9.72
2019-03-30T05:27:24.163Z,9.32
2019-03-30T05:32:33.261Z,11.24
2019-03-30T05:37:42.949Z,11.91
2019-03-30T05:42:51.980Z,9.80
2019-03-30T05:48:01.121Z,12.76
2019-03-30T05:53:10.290Z,13.45
2019-03-30T05:58:19.437Z,13.75
2019-03-30T06:03:28.449Z,11.04
2019-03-30T06:08:37.558Z,14.66
2019-03-30T06:13:46.626Z,10.44
2019-03-30T06:18:55.779Z,13.29
2019-03-30T06:24:04.857Z,12.41
2019-03-30T06:29:14.334Z,12.86
2019-03-30T06:34:23.414Z,13.88
2019-03-30T06:39:32.588Z,13.35
2019-03-30T06:44:53.415Z,13.43
2019-03-30T06:49:42.441Z,11.60
2019-03-30T06:54:51.497Z,11.87
2019-03-30T07:00:00.679Z,13.59
2019-03-30T07:05:09.760Z,12.10
2019-03-30T07:10:19.924Z,13.31
2019-03-30T07:15:34.590Z,10.99
2019-03-30T07:20:23.670Z,12.28
2019-03-30T07:25:32.753Z,11.76
2019-03-30T07:30:41.939Z,9.85
2019-03-30T07:35:51.474Z,10.42
2019-03-30T07:41:00.598Z,11.55
2019-03-30T07:46:09.678Z,11.08
2019-03-30T07:51:18.870Z,14.64
2019-03-30T07:56:27.901Z,10.56
2019-03-30T08:01:37.093Z,11.58
2019-03-30T08:06:46.187Z,13.18
2019-03-30T08:11:55.290Z,14.05
2019-03-30T08:17:04.439Z,13.41
2019-03-30T08:22:13.621Z,10.48
2019-03-30T08:27:22.709Z,13.67
2019-03-30T08:32:31.850Z,11.80
2019-03-30T08:37:41.242Z,14.18
2019-03-30T08:42:50.349Z,16.79
2019-03-30T08:47:59.439Z,11.17
2019-03-30T08:53:08.923Z,9.87
2019-03-30T08:58:17.945Z,14.79
2019-03-30T09:03:27.042Z,11.46
2019-03-30T09:08:36.059Z,11.70
2019-03-30T09:13:45.208Z,13.22
2019-03-30T09:18:54.466Z,10.81
2019-03-30T09:24:10.086Z,10.81
2019-03-30T09:29:12.194Z,14.72
2019-03-30T09:34:21.281Z,11.99
2019-03-30T09:39:30.331Z,12.68
2019-03-30T09:44:39.459Z,10.37
2019-03-30T09:49:48.547Z,12.25
2019-03-30T09:54:57.725Z,10.07
2019-03-30T10:00:06.751Z,13.61
2019-03-30T10:05:15.965Z,14.21
2019-03-30T10:10:24.990Z,15.43
2019-03-30T10:15:34.102Z,10.67
2019-03-30T10:20:43.126Z,10.92
2019-03-30T10:25:52.273Z,10.37
2019-03-30T10:31:01.358Z,12.19
2019-03-30T10:36:10.485Z,13.85
2019-03-30T10:41:19.522Z,10.35
2019-03-30T10:46:28.758Z,7.95
2019-03-30T10:51:37.791Z,8.78
2019-03-30T10:57:46.881Z,12.97
2019-03-30T11:02:55.953Z,10.00
2019-03-30T11:08:05.146Z,13.36
2019-03-30T11:13:14.305Z,11.65
2019-03-30T11:18:23.394Z,12.34
2019-03-30T11:23:46.697Z,12.94
2019-03-30T11:28:35.740Z,12.14
2019-03-30T11:33:44.753Z,12.03
2019-03-30T11:38:53.913Z,13.68
2019-03-30T11:44:03.130Z,12.22
2019-03-30T11:49:12.295Z,12.17
2019-03-30T11:54:21.385Z,10.74
2019-03-30T11:59:30.616Z,9.82
2019-03-30T12:04:39.686Z,10.59
2019-03-30T12:09:48.808Z,10.99
2019-03-30T12:14:57.886Z,9.41
2019-03-30T12:20:06.966Z,10.95
2019-03-30T12:25:15.998Z,9.20
2019-03-30T12:30:25.129Z,10.09
2019-03-30T12:35:34.225Z,9.12
2019-03-30T12:40:43.360Z,12.38
2019-03-30T12:45:52.426Z,13.36
2019-03-30T12:51:01.838Z,9.67
2019-03-30T12:56:12.731Z,10.23
2019-03-30T13:01:15.454Z,12.20
2019-03-30T13:06:20.550Z,6.60
2019-03-30T13:11:29.659Z,9.50
2019-03-30T13:16:38.697Z,11.60
2019-03-30T13:21:52.880Z,10.24
2019-03-30T13:26:56.799Z,8.42
2019-03-30T13:32:05.933Z,8.91
2019-03-30T13:37:15.394Z,14.45
2019-03-30T13:42:24.577Z,9.95
2019-03-30T13:47:33.663Z,11.22
2019-03-30T13:52:42.909Z,8.72
2019-03-30T13:57:51.929Z,13.12
2019-03-30T14:03:01.062Z,12.27
2019-03-30T14:08:10.117Z,13.76
2019-03-30T14:13:19.325Z,10.66
2019-03-30T14:18:28.475Z,13.28
2019-03-30T14:23:37.625Z,10.72
2019-03-30T14:28:46.877Z,10.00
2019-03-30T14:33:55.979Z,9.27
2019-03-30T14:39:05.016Z,6.67
2019-03-30T14:44:14.210Z,7.72
2019-03-30T14:49:23.306Z,10.29
2019-03-30T14:54:32.381Z,8.21
2019-03-30T14:59:41.390Z,12.69
2019-03-30T15:04:50.567Z,11.16
2019-03-30T15:09:59.769Z,9.12
2019-03-30T15:15:08.922Z,9.49
2019-03-30T15:20:17.933Z,6.57
2019-03-30T15:25:27.238Z,6.30
2019-03-30T15:30:36.294Z,9.84
2019-03-30T15:35:45.424Z,5.53
2019-03-30T15:40:55.808Z,7.65
2019-03-30T15:46:03.196Z,7.14
2019-03-30T15:51:12.401Z,6.59
2019-03-30T15:56:21.606Z,7.61
2019-03-30T16:01:30.813Z,10.76
2019-03-30T16:06:39.959Z,11.83
2019-03-30T16:11:49.042Z,8.51
2019-03-30T16:16:58.160Z,6.18
2019-03-30T16:22:07.195Z,6.38
2019-03-30T16:27:28.096Z,7.53
2019-03-30T16:32:24.935Z,7.93
2019-03-30T16:37:34.041Z,8.27
2019-03-30T16:42:43.049Z,7.70
2019-03-30T16:47:52.261Z,7.06
2019-03-30T16:53:01.319Z,8.35
2019-03-30T16:58:08.993Z,8.83
2019-03-30T17:03:18.022Z,7.74
2019-03-30T17:08:27.190Z,10.53
2019-03-30T17:13:36.610Z,8.73
2019-03-30T17:18:46.293Z,11.84
2019-03-30T17:23:55.309Z,13.61
2019-03-30T17:29:04.506Z,12.19
2019-03-30T17:34:13.606Z,12.19
2019-03-30T17:39:22.910Z,10.35
2019-03-30T17:44:31.950Z,9.95
2019-03-30T17:49:41.125Z,10.16
2019-03-30T17:54:50.239Z,10.41
2019-03-30T17:59:59.354Z,9.22
2019-03-30T18:05:08.406Z,8.30
2019-03-30T18:10:17.518Z,8.81
2019-03-30T18:15:26.573Z,9.77
2019-03-30T18:20:35.669Z,8.06
2019-03-30T18:25:44.706Z,8.32
2019-03-30T18:30:54.465Z,11.75
2019-03-30T18:36:03.545Z,6.74
2019-03-30T18:41:12.645Z,5.95
2019-03-30T18:46:21.690Z,8.37
2019-03-30T18:51:30.820Z,7.77
2019-03-30T18:56:39.973Z,7.97
2019-03-30T19:01:49.134Z,5.23
2019-03-30T19:06:58.182Z,5.77
2019-03-30T19:12:07.282Z,7.48
2019-03-30T19:17:16.292Z,7.23
2019-03-30T19:22:25.447Z,7.03
2019-03-30T19:27:34.494Z,10.25
2019-03-30T19:32:43.633Z,7.85
2019-03-30T19:37:53.342Z,7.28
2019-03-30T19:43:02.539Z,6.53
2019-03-30T19:48:11.690Z,5.57
2019-03-30T19:53:20.912Z,7.75
2019-03-30T19:58:29.933Z,6.48
2019-03-30T20:03:39.239Z,4.17
2019-03-30T20:08:48.307Z,4.73
2019-03-30T20:13:57.457Z,5.36
2019-03-30T20:19:12.469Z,4.76
2019-03-30T20:24:15.315Z,7.49
2019-03-30T20:29:25.337Z,5.38
2019-03-30T20:34:33.070Z,6.62
2019-03-30T20:39:42.216Z,5.95
2019-03-30T20:44:51.358Z,3.66
2019-03-30T20:50:00.445Z,5.46
2019-03-30T20:55:09.569Z,3.24
2019-03-30T21:00:18.637Z,3.52
2019-03-30T21:05:27.739Z,4.32
2019-03-30T21:10:36.810Z,5.23
2019-03-30T21:15:46.105Z,5.66
2019-03-30T21:20:55.450Z,4.55
2019-03-30T21:26:04.581Z,5.16
2019-03-30T21:31:13.642Z,5.95
2019-03-30T21:36:22.821Z,3.76
2019-03-30T21:41:31.846Z,4.87
2019-03-30T21:46:41.054Z,3.74
2019-03-30T21:51:50.139Z,5.18
2019-03-30T21:56:59.217Z,4.73
2019-03-30T22:02:08.242Z,4.14
2019-03-30T22:07:17.441Z,4.45
2019-03-30T22:12:26.527Z,5.19
2019-03-30T22:17:35.662Z,4.69
2019-03-30T22:22:44.743Z,3.85
2019-03-30T22:27:53.921Z,4.07
2019-03-30T22:33:02.998Z,2.82
2019-03-30T22:38:12.254Z,1.95
2019-03-30T22:43:21.304Z,2.03
2019-03-30T22:48:30.418Z,2.13
2019-03-30T22:53:39.465Z,2.02
2019-03-30T22:58:48.578Z,2.02
2019-03-30T23:03:57.622Z,2.31
2019-03-30T23:09:06.805Z,2.66
2019-03-30T23:14:15.893Z,2.87
2019-03-30T23:19:24.990Z,3.16
2019-03-30T23:24:34.026Z,2.47
2019-03-30T23:29:43.146Z,3.68
2019-03-30T23:34:52.230Z,3.77
2019-03-30T23:40:01.362Z,2.58
2019-03-30T23:45:10.502Z,3.25
2019-03-30T23:50:19.578Z,3.88
2019-03-30T23:55:28.641Z,3.00
